world map with PLX marked

PLX - Airport

This information may not be accurate or current and is not valid for navigation or flight planning. No warranty of fitness for any purpose is made or implied.

flag of Kazakhstan

Donate via PayPal

Additional information is available on the NEW Great Circle Mapper

Location
City:  Semey, Shyghys Qazaqstan, Kazakhstan
Name:Semey Airport (Semipalatinsk Airport)
ICAO / IATA:UASS / PLX

Details
Type:Airport (Aerodrome, Airfield)
Use:Public/Civil
Latitude:50°21'05"N (50.351389)
Longitude:80°14'04"E (80.234444)
Elevation:761 ft (232 m)
Runways:1
Longest:10157 × 148 ft (3096 × 45 m)

Time
Timezone:UTC+6 (DST+7)

Weather
METAR:UASS  041200Z 28005MPS 8000 NSC M23/M26 Q1031 R26/451037 NOSIG RMK QFE754/1006
TAF:UASS  (expired)

Related Locations
Nearby:
Farthest:NEMO: 11377 mi / 18310 km
Pacific Ocean [Oceanic Pole of Inaccessibility (Point Nemo)]

Find:

   beyond  
but within

Other Information
Maps:
Sources:

  


 


Great Circle Mapper   Great Circle Mapper
Great Circle Mapper FAQ   Great Circle Mapper FAQ
  Karl's Home Page
KLSē   KLSē Home
   GC on Facebook
Airlines of the World   Airlines of the World
Donate via PayPal


Copyright © 2004-2019, Karl L. Swartz. All rights reserved.
All trademarks mentioned herein belong to their respective owners.

Please see credits for attribution and copyright information.

Karl Swartz <karl@kls2.com>
  Powered by FreeBSD
Valid HTML 4.01!
Labeled with ICRA
hCard Microformat
Geo Microformat